sensor_id;sensor_type;location;lat;lon;timestamp;temperature;humidity
3954;DHT22;1991;48.682;9.030;2024-03-07T00:02:20;6.20;99.90
3954;DHT22;1991;48.682;9.030;2024-03-07T00:04:45;6.20;99.90
3954;DHT22;1991;48.682;9.030;2024-03-07T00:07:11;6.20;99.90
3954;DHT22;1991;48.682;9.030;2024-03-07T00:09:37;6.20;99.90
3954;DHT22;1991;48.682;9.030;2024-03-07T00:12:03;6.10;99.90
3954;DHT22;1991;48.682;9.030;2024-03-07T00:14:30;6.10;99.90
3954;DHT22;1991;48.682;9.030;2024-03-07T00:16:57;6.00;99.90
3954;DHT22;1991;48.682;9.030;2024-03-07T00:19:24;6.10;99.90
3954;DHT22;1991;48.682;9.030;2024-03-07T00:21:58;6.10;99.90
3954;DHT22;1991;48.682;9.030;2024-03-07T00:24:24;6.10;99.90
3954;DHT22;1991;48.682;9.030;2024-03-07T00:26:50;6.10;99.90
3954;DHT22;1991;48.682;9.030;2024-03-07T00:29:17;6.00;99.90
3954;DHT22;1991;48.682;9.030;2024-03-07T00:31:44;6.00;99.90
3954;DHT22;1991;48.682;9.030;2024-03-07T00:34:12;5.90;99.90
3954;DHT22;1991;48.682;9.030;2024-03-07T00:36:40;5.80;99.90
3954;DHT22;1991;48.682;9.030;2024-03-07T00:39:05;5.70;99.90
3954;DHT22;1991;48.682;9.030;2024-03-07T00:41:33;5.70;99.90
3954;DHT22;1991;48.682;9.030;2024-03-07T00:43:59;5.70;99.90
3954;DHT22;1991;48.682;9.030;2024-03-07T00:46:25;5.60;99.90
3954;DHT22;1991;48.682;9.030;2024-03-07T00:48:50;5.50;99.90
3954;DHT22;1991;48.682;9.030;2024-03-07T00:51:16;5.50;99.90
3954;DHT22;1991;48.682;9.030;2024-03-07T00:53:41;5.50;99.90
3954;DHT22;1991;48.682;9.030;2024-03-07T00:56:07;5.30;99.90
3954;DHT22;1991;48.682;9.030;2024-03-07T00:58:32;5.20;99.90
3954;DHT22;1991;48.682;9.030;2024-03-07T01:00:58;5.20;99.90
3954;DHT22;1991;48.682;9.030;2024-03-07T01:03:24;5.20;99.90
3954;DHT22;1991;48.682;9.030;2024-03-07T01:05:49;5.20;99.90
3954;DHT22;1991;48.682;9.030;2024-03-07T01:08:15;5.20;99.90
3954;DHT22;1991;48.682;9.030;2024-03-07T01:10:40;5.20;99.90
3954;DHT22;1991;48.682;9.030;2024-03-07T01:13:06;5.20;99.90
3954;DHT22;1991;48.682;9.030;2024-03-07T01:15:34;5.30;99.90
3954;DHT22;1991;48.682;9.030;2024-03-07T01:18:00;5.30;99.90
3954;DHT22;1991;48.682;9.030;2024-03-07T01:20:25;5.30;99.90
3954;DHT22;1991;48.682;9.030;2024-03-07T01:22:51;5.30;99.90
3954;DHT22;1991;48.682;9.030;2024-03-07T01:25:18;5.30;99.90
3954;DHT22;1991;48.682;9.030;2024-03-07T01:27:43;5.30;99.90
3954;DHT22;1991;48.682;9.030;2024-03-07T01:30:10;5.30;99.90
3954;DHT22;1991;48.682;9.030;2024-03-07T01:32:35;5.30;99.90
3954;DHT22;1991;48.682;9.030;2024-03-07T01:35:01;5.20;99.90
3954;DHT22;1991;48.682;9.030;2024-03-07T01:37:27;5.10;99.90
3954;DHT22;1991;48.682;9.030;2024-03-07T01:39:54;5.10;99.90
3954;DHT22;1991;48.682;9.030;2024-03-07T01:42:19;5.00;99.90
3954;DHT22;1991;48.682;9.030;2024-03-07T01:44:45;4.90;99.90
3954;DHT22;1991;48.682;9.030;2024-03-07T01:47:11;4.80;99.90
3954;DHT22;1991;48.682;9.030;2024-03-07T01:49:37;4.60;99.90
3954;DHT22;1991;48.682;9.030;2024-03-07T01:52:04;4.50;99.90
3954;DHT22;1991;48.682;9.030;2024-03-07T01:54:31;4.40;99.90
3954;DHT22;1991;48.682;9.030;2024-03-07T01:56:57;4.30;99.90
3954;DHT22;1991;48.682;9.030;2024-03-07T01:59:24;4.30;99.90
3954;DHT22;1991;48.682;9.030;2024-03-07T02:01:50;4.20;99.90
3954;DHT22;1991;48.682;9.030;2024-03-07T02:04:16;4.10;99.90
3954;DHT22;1991;48.682;9.030;2024-03-07T02:06:42;3.90;99.90
3954;DHT22;1991;48.682;9.030;2024-03-07T02:09:07;3.80;99.90
3954;DHT22;1991;48.682;9.030;2024-03-07T02:11:33;3.70;99.90
3954;DHT22;1991;48.682;9.030;2024-03-07T02:13:59;3.60;99.90
3954;DHT22;1991;48.682;9.030;2024-03-07T02:16:25;3.50;99.90
3954;DHT22;1991;48.682;9.030;2024-03-07T02:18:51;3.40;99.90
3954;DHT22;1991;48.682;9.030;2024-03-07T02:21:16;3.30;99.90
3954;DHT22;1991;48.682;9.030;2024-03-07T02:23:42;3.30;99.90
3954;DHT22;1991;48.682;9.030;2024-03-07T02:26:08;3.20;99.90
3954;DHT22;1991;48.682;9.030;2024-03-07T02:28:34;3.20;99.90
3954;DHT22;1991;48.682;9.030;2024-03-07T02:31:00;3.10;99.90
3954;DHT22;1991;48.682;9.030;2024-03-07T02:33:26;3.10;99.90
3954;DHT22;1991;48.682;9.030;2024-03-07T02:35:52;3.00;99.90
3954;DHT22;1991;48.682;9.030;2024-03-07T02:38:18;2.90;99.90
3954;DHT22;1991;48.682;9.030;2024-03-07T02:40:43;2.90;99.90
3954;DHT22;1991;48.682;9.030;2024-03-07T02:43:09;2.80;99.90
3954;DHT22;1991;48.682;9.030;2024-03-07T02:45:34;2.70;99.90
3954;DHT22;1991;48.682;9.030;2024-03-07T02:48:00;2.60;99.90
3954;DHT22;1991;48.682;9.030;2024-03-07T02:50:26;2.60;99.90
3954;DHT22;1991;48.682;9.030;2024-03-07T02:52:51;2.60;99.90
3954;DHT22;1991;48.682;9.030;2024-03-07T02:55:18;2.50;99.90
3954;DHT22;1991;48.682;9.030;2024-03-07T02:57:44;2.50;99.90
3954;DHT22;1991;48.682;9.030;2024-03-07T03:00:11;2.40;99.90
3954;DHT22;1991;48.682;9.030;2024-03-07T03:02:48;2.30;99.90
3954;DHT22;1991;48.682;9.030;2024-03-07T03:05:15;2.30;99.90
3954;DHT22;1991;48.682;9.030;2024-03-07T03:07:41;2.20;99.90
3954;DHT22;1991;48.682;9.030;2024-03-07T03:10:07;2.20;99.90
3954;DHT22;1991;48.682;9.030;2024-03-07T03:12:33;2.30;99.90
3954;DHT22;1991;48.682;9.030;2024-03-07T03:14:59;2.40;99.90
3954;DHT22;1991;48.682;9.030;2024-03-07T03:17:24;2.50;99.90
3954;DHT22;1991;48.682;9.030;2024-03-07T03:19:50;2.60;99.90
3954;DHT22;1991;48.682;9.030;2024-03-07T03:22:17;2.60;99.90
3954;DHT22;1991;48.682;9.030;2024-03-07T03:24:43;2.60;99.90
3954;DHT22;1991;48.682;9.030;2024-03-07T03:27:09;2.60;99.90
3954;DHT22;1991;48.682;9.030;2024-03-07T03:29:36;2.50;99.90
3954;DHT22;1991;48.682;9.030;2024-03-07T03:32:01;2.40;99.90
3954;DHT22;1991;48.682;9.030;2024-03-07T03:34:27;2.40;99.90
3954;DHT22;1991;48.682;9.030;2024-03-07T03:36:52;2.30;99.90
3954;DHT22;1991;48.682;9.030;2024-03-07T03:39:18;2.20;99.90
3954;DHT22;1991;48.682;9.030;2024-03-07T03:41:46;2.10;99.90
3954;DHT22;1991;48.682;9.030;2024-03-07T03:44:11;2.00;99.90
3954;DHT22;1991;48.682;9.030;2024-03-07T03:46:37;2.00;99.90
3954;DHT22;1991;48.682;9.030;2024-03-07T03:49:02;1.90;99.90
3954;DHT22;1991;48.682;9.030;2024-03-07T03:51:30;1.90;99.90
3954;DHT22;1991;48.682;9.030;2024-03-07T03:53:55;1.80;99.90
3954;DHT22;1991;48.682;9.030;2024-03-07T03:56:21;1.80;99.90
3954;DHT22;1991;48.682;9.030;2024-03-07T03:58:46;1.80;99.90
3954;DHT22;1991;48.682;9.030;2024-03-07T04:01:12;1.80;99.90
3954;DHT22;1991;48.682;9.030;2024-03-07T04:03:40;1.70;99.90
3954;DHT22;1991;48.682;9.030;2024-03-07T04:06:05;1.70;99.90
3954;DHT22;1991;48.682;9.030;2024-03-07T04:08:32;1.70;99.90
3954;DHT22;1991;48.682;9.030;2024-03-07T04:10:57;1.80;99.90
3954;DHT22;1991;48.682;9.030;2024-03-07T04:13:23;1.90;99.90
3954;DHT22;1991;48.682;9.030;2024-03-07T04:15:49;1.90;99.90
3954;DHT22;1991;48.682;9.030;2024-03-07T04:18:14;2.00;99.90
3954;DHT22;1991;48.682;9.030;2024-03-07T04:20:40;2.00;99.90
3954;DHT22;1991;48.682;9.030;2024-03-07T04:23:06;2.00;99.90
3954;DHT22;1991;48.682;9.030;2024-03-07T04:25:32;2.00;99.90
3954;DHT22;1991;48.682;9.030;2024-03-07T04:27:58;2.00;99.90
3954;DHT22;1991;48.682;9.030;2024-03-07T04:30:24;2.00;99.90
3954;DHT22;1991;48.682;9.030;2024-03-07T04:32:50;2.00;99.90
3954;DHT22;1991;48.682;9.030;2024-03-07T04:35:17;2.00;99.90
3954;DHT22;1991;48.682;9.030;2024-03-07T04:37:42;2.00;99.90
3954;DHT22;1991;48.682;9.030;2024-03-07T04:40:09;2.00;99.90
3954;DHT22;1991;48.682;9.030;2024-03-07T04:42:42;2.00;99.90
3954;DHT22;1991;48.682;9.030;2024-03-07T04:45:09;2.00;99.90
3954;DHT22;1991;48.682;9.030;2024-03-07T04:47:36;2.00;99.90
3954;DHT22;1991;48.682;9.030;2024-03-07T04:50:02;2.00;99.90
3954;DHT22;1991;48.682;9.030;2024-03-07T04:52:27;1.90;99.90
3954;DHT22;1991;48.682;9.030;2024-03-07T04:54:53;1.90;99.90
3954;DHT22;1991;48.682;9.030;2024-03-07T04:57:20;1.80;99.90
3954;DHT22;1991;48.682;9.030;2024-03-07T04:59:45;1.80;99.90
3954;DHT22;1991;48.682;9.030;2024-03-07T05:02:11;1.70;99.90
3954;DHT22;1991;48.682;9.030;2024-03-07T05:04:37;1.80;99.90
3954;DHT22;1991;48.682;9.030;2024-03-07T05:07:03;1.80;99.90
3954;DHT22;1991;48.682;9.030;2024-03-07T05:09:28;1.80;99.90
3954;DHT22;1991;48.682;9.030;2024-03-07T05:11:54;1.80;99.90
3954;DHT22;1991;48.682;9.030;2024-03-07T05:14:21;1.80;99.90
3954;DHT22;1991;48.682;9.030;2024-03-07T05:16:51;1.80;99.90
3954;DHT22;1991;48.682;9.030;2024-03-07T05:19:31;1.70;99.90
3954;DHT22;1991;48.682;9.030;2024-03-07T05:21:57;1.70;99.90
3954;DHT22;1991;48.682;9.030;2024-03-07T05:24:23;1.70;99.90
3954;DHT22;1991;48.682;9.030;2024-03-07T05:26:49;1.60;99.90
3954;DHT22;1991;48.682;9.030;2024-03-07T05:29:14;1.60;99.90
3954;DHT22;1991;48.682;9.030;2024-03-07T05:31:43;1.50;99.90
3954;DHT22;1991;48.682;9.030;2024-03-07T05:34:15;1.50;99.90
3954;DHT22;1991;48.682;9.030;2024-03-07T05:36:47;1.40;99.90
3954;DHT22;1991;48.682;9.030;2024-03-07T05:39:14;1.40;99.90
3954;DHT22;1991;48.682;9.030;2024-03-07T05:41:41;1.40;99.90
3954;DHT22;1991;48.682;9.030;2024-03-07T05:44:07;1.40;99.90
3954;DHT22;1991;48.682;9.030;2024-03-07T05:46:37;1.40;99.90
3954;DHT22;1991;48.682;9.030;2024-03-07T05:49:07;1.40;99.90
3954;DHT22;1991;48.682;9.030;2024-03-07T05:51:33;1.40;99.90
3954;DHT22;1991;48.682;9.030;2024-03-07T05:53:58;1.40;99.90
3954;DHT22;1991;48.682;9.030;2024-03-07T05:56:24;1.40;99.90
3954;DHT22;1991;48.682;9.030;2024-03-07T05:58:50;1.30;99.90
3954;DHT22;1991;48.682;9.030;2024-03-07T06:01:17;1.30;99.90
3954;DHT22;1991;48.682;9.030;2024-03-07T06:03:44;1.30;99.90
3954;DHT22;1991;48.682;9.030;2024-03-07T06:06:10;1.30;99.90
3954;DHT22;1991;48.682;9.030;2024-03-07T06:08:37;1.30;99.90
3954;DHT22;1991;48.682;9.030;2024-03-07T06:11:03;1.30;99.90
3954;DHT22;1991;48.682;9.030;2024-03-07T06:13:29;1.30;99.90
3954;DHT22;1991;48.682;9.030;2024-03-07T06:15:54;1.30;99.90
3954;DHT22;1991;48.682;9.030;2024-03-07T06:18:20;1.30;99.90
3954;DHT22;1991;48.682;9.030;2024-03-07T06:20:46;1.30;99.90
3954;DHT22;1991;48.682;9.030;2024-03-07T06:23:11;1.30;99.90
3954;DHT22;1991;48.682;9.030;2024-03-07T06:25:37;1.40;99.90
3954;DHT22;1991;48.682;9.030;2024-03-07T06:28:13;1.40;99.90
3954;DHT22;1991;48.682;9.030;2024-03-07T06:30:39;1.50;99.90
3954;DHT22;1991;48.682;9.030;2024-03-07T06:33:06;1.50;99.90
3954;DHT22;1991;48.682;9.030;2024-03-07T06:35:32;1.60;99.90
3954;DHT22;1991;48.682;9.030;2024-03-07T06:37:57;1.70;99.90
3954;DHT22;1991;48.682;9.030;2024-03-07T06:40:23;1.80;99.90
3954;DHT22;1991;48.682;9.030;2024-03-07T06:42:49;2.00;99.90
3954;DHT22;1991;48.682;9.030;2024-03-07T06:45:16;2.00;99.90
3954;DHT22;1991;48.682;9.030;2024-03-07T06:47:41;2.10;99.90
3954;DHT22;1991;48.682;9.030;2024-03-07T06:50:07;2.20;99.90
3954;DHT22;1991;48.682;9.030;2024-03-07T06:52:35;2.30;99.90
3954;DHT22;1991;48.682;9.030;2024-03-07T06:55:02;2.40;99.90
3954;DHT22;1991;48.682;9.030;2024-03-07T06:57:29;2.60;99.90
3954;DHT22;1991;48.682;9.030;2024-03-07T06:59:55;2.70;99.90
3954;DHT22;1991;48.682;9.030;2024-03-07T07:02:20;2.80;99.90
3954;DHT22;1991;48.682;9.030;2024-03-07T07:04:46;2.90;99.90
3954;DHT22;1991;48.682;9.030;2024-03-07T07:07:13;3.10;99.90
3954;DHT22;1991;48.682;9.030;2024-03-07T07:09:40;3.10;99.90
3954;DHT22;1991;48.682;9.030;2024-03-07T07:12:06;3.30;99.90
3954;DHT22;1991;48.682;9.030;2024-03-07T07:14:31;3.50;99.90
3954;DHT22;1991;48.682;9.030;2024-03-07T07:16:57;3.60;99.90
3954;DHT22;1991;48.682;9.030;2024-03-07T07:19:24;3.70;99.90
3954;DHT22;1991;48.682;9.030;2024-03-07T07:21:50;3.70;99.90
3954;DHT22;1991;48.682;9.030;2024-03-07T07:24:22;3.90;99.90
3954;DHT22;1991;48.682;9.030;2024-03-07T07:26:51;4.20;99.90
3954;DHT22;1991;48.682;9.030;2024-03-07T07:29:17;4.40;99.90
3954;DHT22;1991;48.682;9.030;2024-03-07T07:31:43;4.60;99.90
3954;DHT22;1991;48.682;9.030;2024-03-07T07:34:10;4.80;99.90
3954;DHT22;1991;48.682;9.030;2024-03-07T07:36:36;4.90;99.90
3954;DHT22;1991;48.682;9.030;2024-03-07T07:39:02;5.00;99.90
3954;DHT22;1991;48.682;9.030;2024-03-07T07:41:28;5.10;99.90
3954;DHT22;1991;48.682;9.030;2024-03-07T07:43:54;5.10;99.90
3954;DHT22;1991;48.682;9.030;2024-03-07T07:46:20;5.10;99.90
3954;DHT22;1991;48.682;9.030;2024-03-07T07:48:45;5.20;99.90
3954;DHT22;1991;48.682;9.030;2024-03-07T07:51:11;5.30;99.90
3954;DHT22;1991;48.682;9.030;2024-03-07T07:53:38;5.30;99.90
3954;DHT22;1991;48.682;9.030;2024-03-07T07:56:03;5.40;99.90
3954;DHT22;1991;48.682;9.030;2024-03-07T07:58:30;5.70;99.90
3954;DHT22;1991;48.682;9.030;2024-03-07T08:00:55;6.00;99.90
3954;DHT22;1991;48.682;9.030;2024-03-07T08:03:21;6.20;99.90
3954;DHT22;1991;48.682;9.030;2024-03-07T08:05:47;6.30;99.90
3954;DHT22;1991;48.682;9.030;2024-03-07T08:08:13;6.40;99.90
3954;DHT22;1991;48.682;9.030;2024-03-07T08:10:42;6.70;99.90
3954;DHT22;1991;48.682;9.030;2024-03-07T08:13:08;7.10;99.90
3954;DHT22;1991;48.682;9.030;2024-03-07T08:15:36;7.40;99.90
3954;DHT22;1991;48.682;9.030;2024-03-07T08:18:02;7.50;99.90
3954;DHT22;1991;48.682;9.030;2024-03-07T08:20:33;7.60;99.90
3954;DHT22;1991;48.682;9.030;2024-03-07T08:23:00;7.80;99.90
3954;DHT22;1991;48.682;9.030;2024-03-07T08:25:27;7.70;99.90
3954;DHT22;1991;48.682;9.030;2024-03-07T08:27:55;7.50;99.90
3954;DHT22;1991;48.682;9.030;2024-03-07T08:30:22;7.40;99.90
3954;DHT22;1991;48.682;9.030;2024-03-07T08:32:52;7.30;99.90
3954;DHT22;1991;48.682;9.030;2024-03-07T08:35:18;7.10;99.90
3954;DHT22;1991;48.682;9.030;2024-03-07T08:37:52;6.90;99.90
3954;DHT22;1991;48.682;9.030;2024-03-07T08:40:25;6.80;99.90
3954;DHT22;1991;48.682;9.030;2024-03-07T08:42:52;6.70;99.90
3954;DHT22;1991;48.682;9.030;2024-03-07T08:45:19;6.70;99.90
3954;DHT22;1991;48.682;9.030;2024-03-07T08:47:46;6.60;99.90
3954;DHT22;1991;48.682;9.030;2024-03-07T08:50:13;6.70;99.90
3954;DHT22;1991;48.682;9.030;2024-03-07T08:52:40;6.50;99.90
3954;DHT22;1991;48.682;9.030;2024-03-07T08:55:06;6.60;99.90
3954;DHT22;1991;48.682;9.030;2024-03-07T08:57:35;6.60;99.90
3954;DHT22;1991;48.682;9.030;2024-03-07T09:00:03;6.50;99.90
3954;DHT22;1991;48.682;9.030;2024-03-07T09:02:34;6.60;99.90
3954;DHT22;1991;48.682;9.030;2024-03-07T09:05:00;6.70;99.90
3954;DHT22;1991;48.682;9.030;2024-03-07T09:07:26;6.70;99.90
3954;DHT22;1991;48.682;9.030;2024-03-07T09:09:51;6.80;99.90
3954;DHT22;1991;48.682;9.030;2024-03-07T09:12:17;6.90;99.90
3954;DHT22;1991;48.682;9.030;2024-03-07T09:14:45;6.80;99.90
3954;DHT22;1991;48.682;9.030;2024-03-07T09:17:11;6.90;99.90
3954;DHT22;1991;48.682;9.030;2024-03-07T09:19:37;6.90;99.90
3954;DHT22;1991;48.682;9.030;2024-03-07T09:22:03;7.00;99.90
3954;DHT22;1991;48.682;9.030;2024-03-07T09:24:30;7.20;99.90
3954;DHT22;1991;48.682;9.030;2024-03-07T09:26:57;7.20;99.90
3954;DHT22;1991;48.682;9.030;2024-03-07T09:29:23;7.30;99.90
3954;DHT22;1991;48.682;9.030;2024-03-07T09:31:52;7.30;99.90
3954;DHT22;1991;48.682;9.030;2024-03-07T09:34:19;7.30;99.90
3954;DHT22;1991;48.682;9.030;2024-03-07T09:36:46;7.20;99.90
3954;DHT22;1991;48.682;9.030;2024-03-07T09:39:12;7.20;99.90
3954;DHT22;1991;48.682;9.030;2024-03-07T09:41:38;7.20;99.90
3954;DHT22;1991;48.682;9.030;2024-03-07T09:44:05;7.20;99.90
3954;DHT22;1991;48.682;9.030;2024-03-07T09:46:31;7.10;99.90
3954;DHT22;1991;48.682;9.030;2024-03-07T09:48:58;7.20;99.90
3954;DHT22;1991;48.682;9.030;2024-03-07T09:51:24;7.20;99.90
3954;DHT22;1991;48.682;9.030;2024-03-07T09:53:52;7.20;99.90
3954;DHT22;1991;48.682;9.030;2024-03-07T09:56:21;7.20;99.90
3954;DHT22;1991;48.682;9.030;2024-03-07T09:58:50;7.30;99.90
3954;DHT22;1991;48.682;9.030;2024-03-07T10:01:20;7.40;99.90
3954;DHT22;1991;48.682;9.030;2024-03-07T10:03:47;7.60;99.90
3954;DHT22;1991;48.682;9.030;2024-03-07T10:06:13;7.60;99.90
3954;DHT22;1991;48.682;9.030;2024-03-07T10:08:41;7.60;99.90
3954;DHT22;1991;48.682;9.030;2024-03-07T10:11:07;7.70;99.90
3954;DHT22;1991;48.682;9.030;2024-03-07T10:13:35;7.90;99.90
3954;DHT22;1991;48.682;9.030;2024-03-07T10:16:02;8.10;99.90
3954;DHT22;1991;48.682;9.030;2024-03-07T10:18:27;8.30;99.90
3954;DHT22;1991;48.682;9.030;2024-03-07T10:20:56;8.50;99.90
3954;DHT22;1991;48.682;9.030;2024-03-07T10:23:22;8.60;99.90
3954;DHT22;1991;48.682;9.030;2024-03-07T10:25:49;8.60;99.90
3954;DHT22;1991;48.682;9.030;2024-03-07T10:28:18;8.50;99.90
3954;DHT22;1991;48.682;9.030;2024-03-07T10:30:45;8.40;99.90
3954;DHT22;1991;48.682;9.030;2024-03-07T10:33:12;8.40;99.90
3954;DHT22;1991;48.682;9.030;2024-03-07T10:35:38;8.50;99.90
3954;DHT22;1991;48.682;9.030;2024-03-07T10:38:04;8.60;99.90
3954;DHT22;1991;48.682;9.030;2024-03-07T10:40:33;8.60;99.90
3954;DHT22;1991;48.682;9.030;2024-03-07T10:43:01;8.60;99.90
3954;DHT22;1991;48.682;9.030;2024-03-07T10:45:29;8.40;99.90
3954;DHT22;1991;48.682;9.030;2024-03-07T10:47:56;8.40;99.90
3954;DHT22;1991;48.682;9.030;2024-03-07T10:59:01;8.60;99.90
3954;DHT22;1991;48.682;9.030;2024-03-07T11:01:35;8.80;99.90
3954;DHT22;1991;48.682;9.030;2024-03-07T11:04:04;8.70;99.90
3954;DHT22;1991;48.682;9.030;2024-03-07T11:06:32;8.80;99.90
3954;DHT22;1991;48.682;9.030;2024-03-07T11:09:01;8.90;99.50
3954;DHT22;1991;48.682;9.030;2024-03-07T11:11:29;9.00;99.10
3954;DHT22;1991;48.682;9.030;2024-03-07T11:13:55;9.10;97.60
3954;DHT22;1991;48.682;9.030;2024-03-07T11:16:24;12.20;96.50
3954;DHT22;1991;48.682;9.030;2024-03-07T11:21:48;19.00;57.00
3954;DHT22;1991;48.682;9.030;2024-03-07T11:24:43;17.10;58.00
3954;DHT22;1991;48.682;9.030;2024-03-07T11:27:10;15.20;61.70
3954;DHT22;1991;48.682;9.030;2024-03-07T11:29:39;14.40;65.00
3954;DHT22;1991;48.682;9.030;2024-03-07T11:32:12;14.20;66.40
3954;DHT22;1991;48.682;9.030;2024-03-07T11:34:45;15.90;65.10
3954;DHT22;1991;48.682;9.030;2024-03-07T11:37:18;17.80;60.20
3954;DHT22;1991;48.682;9.030;2024-03-07T11:39:48;19.60;56.30
3954;DHT22;1991;48.682;9.030;2024-03-07T11:42:22;25.10;48.80
3954;DHT22;1991;48.682;9.030;2024-03-07T11:44:49;29.10;42.10
3954;DHT22;1991;48.682;9.030;2024-03-07T11:47:16;26.80;38.90
3954;DHT22;1991;48.682;9.030;2024-03-07T11:49:43;23.20;42.30
3954;DHT22;1991;48.682;9.030;2024-03-07T11:52:09;20.90;46.90
3954;DHT22;1991;48.682;9.030;2024-03-07T11:54:39;19.00;49.40
3954;DHT22;1991;48.682;9.030;2024-03-07T11:57:12;17.30;51.70
3954;DHT22;1991;48.682;9.030;2024-03-07T11:59:45;15.80;55.60
3954;DHT22;1991;48.682;9.030;2024-03-07T12:02:14;14.90;57.90
3954;DHT22;1991;48.682;9.030;2024-03-07T12:04:41;14.30;60.80
3954;DHT22;1991;48.682;9.030;2024-03-07T12:07:07;13.80;61.70
3954;DHT22;1991;48.682;9.030;2024-03-07T12:09:38;13.00;65.30
3954;DHT22;1991;48.682;9.030;2024-03-07T12:12:07;12.50;66.40
3954;DHT22;1991;48.682;9.030;2024-03-07T12:14:34;11.80;68.40
3954;DHT22;1991;48.682;9.030;2024-03-07T12:17:04;11.20;70.80
3954;DHT22;1991;48.682;9.030;2024-03-07T12:19:32;11.00;72.50
3954;DHT22;1991;48.682;9.030;2024-03-07T12:22:02;10.60;73.70
3954;DHT22;1991;48.682;9.030;2024-03-07T12:24:28;10.40;76.20
3954;DHT22;1991;48.682;9.030;2024-03-07T12:27:05;10.00;78.30
3954;DHT22;1991;48.682;9.030;2024-03-07T12:29:31;10.00;80.60
3954;DHT22;1991;48.682;9.030;2024-03-07T12:31:56;9.90;81.80
3954;DHT22;1991;48.682;9.030;2024-03-07T12:34:22;10.10;82.20
3954;DHT22;1991;48.682;9.030;2024-03-07T12:36:52;10.10;81.90
3954;DHT22;1991;48.682;9.030;2024-03-07T12:39:24;10.10;82.00
3954;DHT22;1991;48.682;9.030;2024-03-07T12:41:57;10.00;83.30
3954;DHT22;1991;48.682;9.030;2024-03-07T12:44:23;10.00;84.30
3954;DHT22;1991;48.682;9.030;2024-03-07T12:46:51;10.20;84.70
3954;DHT22;1991;48.682;9.030;2024-03-07T12:49:21;10.40;83.70
3954;DHT22;1991;48.682;9.030;2024-03-07T12:51:47;10.60;83.00
3954;DHT22;1991;48.682;9.030;2024-03-07T12:54:13;11.30;82.80
3954;DHT22;1991;48.682;9.030;2024-03-07T12:56:38;12.30;78.80
3954;DHT22;1991;48.682;9.030;2024-03-07T12:59:05;12.40;76.20
3954;DHT22;1991;48.682;9.030;2024-03-07T13:01:34;12.10;75.90
3954;DHT22;1991;48.682;9.030;2024-03-07T13:04:02;11.80;77.10
3954;DHT22;1991;48.682;9.030;2024-03-07T13:06:29;11.40;79.50
3954;DHT22;1991;48.682;9.030;2024-03-07T13:08:58;11.10;80.00
3954;DHT22;1991;48.682;9.030;2024-03-07T13:11:23;10.70;81.30
3954;DHT22;1991;48.682;9.030;2024-03-07T13:13:52;10.60;82.40
3954;DHT22;1991;48.682;9.030;2024-03-07T13:16:18;10.50;82.80
3954;DHT22;1991;48.682;9.030;2024-03-07T13:18:43;10.30;82.80
3954;DHT22;1991;48.682;9.030;2024-03-07T13:21:11;10.20;84.60
3954;DHT22;1991;48.682;9.030;2024-03-07T13:23:39;10.30;85.20
3954;DHT22;1991;48.682;9.030;2024-03-07T13:26:05;10.30;85.10
3954;DHT22;1991;48.682;9.030;2024-03-07T13:28:34;10.30;84.80
3954;DHT22;1991;48.682;9.030;2024-03-07T13:30:59;10.40;83.90
3954;DHT22;1991;48.682;9.030;2024-03-07T13:33:25;10.50;84.80
3954;DHT22;1991;48.682;9.030;2024-03-07T13:35:52;10.80;84.40
3954;DHT22;1991;48.682;9.030;2024-03-07T13:38:18;10.70;82.70
3954;DHT22;1991;48.682;9.030;2024-03-07T13:40:44;10.80;82.90
3954;DHT22;1991;48.682;9.030;2024-03-07T13:43:09;10.70;83.30
3954;DHT22;1991;48.682;9.030;2024-03-07T13:45:36;10.70;84.30
3954;DHT22;1991;48.682;9.030;2024-03-07T13:48:08;10.60;85.90
3954;DHT22;1991;48.682;9.030;2024-03-07T13:50:36;10.30;84.80
3954;DHT22;1991;48.682;9.030;2024-03-07T13:53:03;10.20;85.80
3954;DHT22;1991;48.682;9.030;2024-03-07T13:59:20;10.10;86.70
3954;DHT22;1991;48.682;9.030;2024-03-07T14:02:23;10.00;86.30
3954;DHT22;1991;48.682;9.030;2024-03-07T14:16:57;9.40;91.30
3954;DHT22;1991;48.682;9.030;2024-03-07T14:22:30;9.30;92.90
3954;DHT22;1991;48.682;9.030;2024-03-07T14:28:13;9.20;94.00
3954;DHT22;1991;48.682;9.030;2024-03-07T14:30:52;9.10;94.10
3954;DHT22;1991;48.682;9.030;2024-03-07T14:33:47;9.00;94.70
3954;DHT22;1991;48.682;9.030;2024-03-07T14:36:15;8.90;94.60
3954;DHT22;1991;48.682;9.030;2024-03-07T14:38:52;8.80;95.10
3954;DHT22;1991;48.682;9.030;2024-03-07T14:41:20;8.60;95.60
3954;DHT22;1991;48.682;9.030;2024-03-07T14:43:48;8.60;96.60
3954;DHT22;1991;48.682;9.030;2024-03-07T14:46:15;8.40;97.10
3954;DHT22;1991;48.682;9.030;2024-03-07T14:48:41;8.30;98.50
3954;DHT22;1991;48.682;9.030;2024-03-07T14:51:09;8.20;98.60
3954;DHT22;1991;48.682;9.030;2024-03-07T14:53:41;8.10;99.90
3954;DHT22;1991;48.682;9.030;2024-03-07T14:56:08;8.20;99.90
3954;DHT22;1991;48.682;9.030;2024-03-07T14:58:35;8.30;99.90
3954;DHT22;1991;48.682;9.030;2024-03-07T15:01:04;8.40;99.90
3954;DHT22;1991;48.682;9.030;2024-03-07T15:03:31;8.50;99.90
3954;DHT22;1991;48.682;9.030;2024-03-07T15:05:57;8.60;99.60
3954;DHT22;1991;48.682;9.030;2024-03-07T15:08:24;8.60;98.80
3954;DHT22;1991;48.682;9.030;2024-03-07T15:11:07;8.60;99.20
3954;DHT22;1991;48.682;9.030;2024-03-07T15:13:39;8.60;99.40
3954;DHT22;1991;48.682;9.030;2024-03-07T15:16:05;8.50;99.90
3954;DHT22;1991;48.682;9.030;2024-03-07T15:18:31;8.50;99.90
3954;DHT22;1991;48.682;9.030;2024-03-07T15:20:57;8.50;99.90
3954;DHT22;1991;48.682;9.030;2024-03-07T15:23:23;8.40;99.90
3954;DHT22;1991;48.682;9.030;2024-03-07T15:25:48;8.30;99.90
3954;DHT22;1991;48.682;9.030;2024-03-07T15:28:14;8.20;99.90
3954;DHT22;1991;48.682;9.030;2024-03-07T15:30:39;8.20;99.90
3954;DHT22;1991;48.682;9.030;2024-03-07T15:33:07;8.10;99.90
3954;DHT22;1991;48.682;9.030;2024-03-07T15:35:33;8.00;99.90
3954;DHT22;1991;48.682;9.030;2024-03-07T15:38:00;8.10;99.90
3954;DHT22;1991;48.682;9.030;2024-03-07T15:40:26;8.10;99.90
3954;DHT22;1991;48.682;9.030;2024-03-07T15:42:56;8.00;99.90
3954;DHT22;1991;48.682;9.030;2024-03-07T15:45:25;8.00;99.90
3954;DHT22;1991;48.682;9.030;2024-03-07T15:47:56;8.00;99.90
3954;DHT22;1991;48.682;9.030;2024-03-07T15:50:25;7.90;99.90
3954;DHT22;1991;48.682;9.030;2024-03-07T15:52:55;7.90;99.90
3954;DHT22;1991;48.682;9.030;2024-03-07T15:55:21;8.00;99.90
3954;DHT22;1991;48.682;9.030;2024-03-07T15:57:54;8.00;99.90
3954;DHT22;1991;48.682;9.030;2024-03-07T16:00:26;7.90;99.90
3954;DHT22;1991;48.682;9.030;2024-03-07T16:02:57;7.90;99.90
3954;DHT22;1991;48.682;9.030;2024-03-07T16:05:28;7.80;99.90
3954;DHT22;1991;48.682;9.030;2024-03-07T16:07:55;7.80;99.90
3954;DHT22;1991;48.682;9.030;2024-03-07T16:10:22;7.80;99.90
3954;DHT22;1991;48.682;9.030;2024-03-07T16:12:52;7.70;99.90
3954;DHT22;1991;48.682;9.030;2024-03-07T16:15:19;7.70;99.90
3954;DHT22;1991;48.682;9.030;2024-03-07T16:17:48;7.60;99.90
3954;DHT22;1991;48.682;9.030;2024-03-07T16:20:14;7.60;99.90
3954;DHT22;1991;48.682;9.030;2024-03-07T16:22:44;7.60;99.90
3954;DHT22;1991;48.682;9.030;2024-03-07T16:25:11;7.60;99.90
3954;DHT22;1991;48.682;9.030;2024-03-07T16:27:39;7.50;99.90
3954;DHT22;1991;48.682;9.030;2024-03-07T16:30:09;7.50;99.90
3954;DHT22;1991;48.682;9.030;2024-03-07T16:32:37;7.40;99.90
3954;DHT22;1991;48.682;9.030;2024-03-07T16:35:04;7.30;99.90
3954;DHT22;1991;48.682;9.030;2024-03-07T16:37:36;7.30;99.90
3954;DHT22;1991;48.682;9.030;2024-03-07T16:40:06;7.20;99.90
3954;DHT22;1991;48.682;9.030;2024-03-07T16:42:31;7.20;99.90
3954;DHT22;1991;48.682;9.030;2024-03-07T16:44:58;7.20;99.90
3954;DHT22;1991;48.682;9.030;2024-03-07T16:47:23;7.10;99.90
3954;DHT22;1991;48.682;9.030;2024-03-07T16:49:50;7.10;99.90